createdAt,value
2022-08-20T00:03:57.629Z,10.80
2022-08-20T00:09:07.341Z,9.80
2022-08-20T00:14:13.072Z,10.00
2022-08-20T00:19:18.575Z,9.10
2022-08-20T00:24:24.576Z,8.50
2022-08-20T00:29:30.827Z,9.90
2022-08-20T00:34:36.350Z,8.80
2022-08-20T00:39:42.035Z,8.70
2022-08-20T00:44:48.760Z,7.90
2022-08-20T00:49:55.477Z,9.00
2022-08-20T00:55:03.302Z,9.20
2022-08-20T01:00:11.770Z,8.20
2022-08-20T01:05:17.521Z,8.40
2022-08-20T01:10:28.315Z,9.60
2022-08-20T01:15:33.835Z,8.90
2022-08-20T01:20:41.188Z,9.80
2022-08-20T01:25:49.959Z,9.00
2022-08-20T01:30:55.961Z,9.70
2022-08-20T01:36:01.935Z,11.00
2022-08-20T01:41:12.635Z,10.90
2022-08-20T01:46:19.270Z,10.50
2022-08-20T01:51:26.848Z,11.50
2022-08-20T01:56:33.177Z,10.90
2022-08-20T02:01:46.318Z,11.70
2022-08-20T02:06:57.161Z,12.40
2022-08-20T02:12:04.334Z,12.50
2022-08-20T02:17:10.282Z,12.80
2022-08-20T02:22:19.538Z,11.70
2022-08-20T02:27:25.308Z,12.70
2022-08-20T02:32:34.330Z,11.90
2022-08-20T02:37:40.698Z,11.10
2022-08-20T02:42:46.113Z,11.70
2022-08-20T02:47:52.172Z,11.10
2022-08-20T02:52:57.728Z,12.20
2022-08-20T02:58:03.113Z,12.60
2022-08-20T03:03:10.533Z,11.30
2022-08-20T03:08:17.083Z,11.30
2022-08-20T03:13:24.279Z,12.20
2022-08-20T03:18:31.236Z,14.90
2022-08-20T03:23:38.219Z,19.20
2022-08-20T03:28:46.008Z,18.00
2022-08-20T03:33:54.768Z,16.80
2022-08-20T03:39:01.614Z,17.90
2022-08-20T03:44:07.187Z,19.50
2022-08-20T03:49:12.926Z,19.00
2022-08-20T03:54:18.487Z,18.70
2022-08-20T03:59:23.855Z,18.10
2022-08-20T04:04:29.350Z,18.20
2022-08-20T04:09:34.946Z,20.70
2022-08-20T04:14:40.716Z,19.50
2022-08-20T04:19:47.848Z,23.00
2022-08-20T04:24:53.437Z,24.30
2022-08-20T04:29:58.876Z,29.50
2022-08-20T04:35:04.763Z,31.70
2022-08-20T04:40:32.273Z,28.50
2022-08-20T04:45:40.387Z,25.40
2022-08-20T04:50:47.744Z,22.50
2022-08-20T04:55:54.498Z,15.60
2022-08-20T05:01:01.700Z,15.80
2022-08-20T05:06:08.288Z,12.70
2022-08-20T05:11:32.829Z,11.50
2022-08-20T05:16:41.720Z,11.90
2022-08-20T05:21:47.127Z,11.40
2022-08-20T05:26:55.432Z,10.40
2022-08-20T05:32:01.913Z,11.10
2022-08-20T05:37:07.737Z,18.20
2022-08-20T05:42:13.290Z,26.00
2022-08-20T05:47:19.307Z,24.90
2022-08-20T05:52:28.439Z,30.40
2022-08-20T05:57:34.630Z,33.40
2022-08-20T06:02:58.204Z,35.80
2022-08-20T06:08:07.213Z,37.90
2022-08-20T06:13:14.154Z,39.70
2022-08-20T06:18:28.458Z,39.80
2022-08-20T06:23:56.647Z,37.30
2022-08-20T06:28:59.822Z,35.60
2022-08-20T06:34:05.305Z,35.30
2022-08-20T06:39:10.601Z,35.40
2022-08-20T06:44:17.607Z,36.40
2022-08-20T06:49:23.941Z,34.50
2022-08-20T06:54:29.584Z,35.30
2022-08-20T06:59:35.092Z,36.80
2022-08-20T07:04:40.668Z,37.10
2022-08-20T07:09:47.035Z,36.40
2022-08-20T07:14:52.820Z,36.80
2022-08-20T07:19:58.282Z,37.10
2022-08-20T07:25:04.504Z,38.40
2022-08-20T07:30:29.935Z,32.30
2022-08-20T07:35:35.977Z,33.60
2022-08-20T07:40:43.368Z,33.80
2022-08-20T07:45:49.739Z,34.30
2022-08-20T07:50:57.881Z,32.50
2022-08-20T07:56:04.827Z,34.20
2022-08-20T08:01:12.044Z,33.10
2022-08-20T08:06:28.368Z,33.60
2022-08-20T08:11:38.005Z,31.10
2022-08-20T08:16:45.789Z,32.70
2022-08-20T08:21:51.608Z,31.30
2022-08-20T08:26:57.084Z,31.70
2022-08-20T08:32:05.111Z,30.30
2022-08-20T08:37:10.904Z,32.50
2022-08-20T08:42:22.311Z,29.00
2022-08-20T08:47:29.673Z,32.00
2022-08-20T08:52:36.809Z,31.40
2022-08-20T08:57:42.313Z,31.80
2022-08-20T09:02:57.474Z,30.00
2022-08-20T09:08:06.861Z,29.50
2022-08-20T09:13:12.694Z,28.70
2022-08-20T09:18:18.123Z,30.30
2022-08-20T09:23:24.390Z,27.70
2022-08-20T09:28:32.277Z,29.60
2022-08-20T09:33:37.967Z,28.60
2022-08-20T09:38:43.434Z,25.10
2022-08-20T09:43:49.045Z,28.10
2022-08-20T09:48:54.654Z,25.80
2022-08-20T09:54:02.389Z,25.10
2022-08-20T09:59:08.005Z,26.00
2022-08-20T10:04:13.455Z,26.50
2022-08-20T10:09:19.357Z,23.90
2022-08-20T10:14:24.800Z,25.80
2022-08-20T10:19:31.518Z,25.30
2022-08-20T10:24:36.922Z,24.50
2022-08-20T10:29:46.318Z,25.20
2022-08-20T10:34:52.276Z,25.50
2022-08-20T10:39:57.722Z,22.80
2022-08-20T10:45:03.036Z,25.00
2022-08-20T10:50:10.348Z,24.90
2022-08-20T10:55:15.656Z,24.30
2022-08-20T11:00:20.967Z,23.20
2022-08-20T11:05:26.294Z,23.50
2022-08-20T11:10:34.181Z,23.70
2022-08-20T11:15:41.221Z,21.70
2022-08-20T11:20:46.719Z,22.30
2022-08-20T11:25:52.215Z,21.30
2022-08-20T11:30:57.648Z,21.30
2022-08-20T11:36:02.976Z,21.10
2022-08-20T11:41:08.363Z,21.80
2022-08-20T11:46:13.688Z,20.30
2022-08-20T11:51:19.077Z,22.00
2022-08-20T11:56:24.369Z,22.00
2022-08-20T12:01:32.552Z,21.00
2022-08-20T12:06:40.065Z,18.60
2022-08-20T12:11:46.238Z,18.70
2022-08-20T12:16:51.541Z,17.40
2022-08-20T12:21:57.492Z,16.60
2022-08-20T12:27:11.190Z,16.50
2022-08-20T12:32:19.569Z,16.60
2022-08-20T12:37:27.025Z,15.50
2022-08-20T12:42:32.354Z,16.00
2022-08-20T12:47:39.087Z,15.10
2022-08-20T12:52:44.485Z,14.50
2022-08-20T12:57:51.336Z,15.00
2022-08-20T13:02:57.369Z,14.50
2022-08-20T13:08:04.064Z,13.00
2022-08-20T13:13:09.385Z,13.80
2022-08-20T13:18:14.753Z,12.80
2022-08-20T13:23:20.033Z,12.10
2022-08-20T13:28:27.800Z,12.30
2022-08-20T13:33:33.155Z,12.60
2022-08-20T13:38:38.441Z,12.40
2022-08-20T13:43:43.758Z,11.50
2022-08-20T13:48:49.140Z,10.60
2022-08-20T13:53:54.604Z,11.70
2022-08-20T13:59:00.016Z,11.10
2022-08-20T14:04:05.758Z,12.20
2022-08-20T14:09:11.073Z,12.20
2022-08-20T14:14:16.335Z,12.20
2022-08-20T14:19:21.645Z,11.90
2022-08-20T14:24:27.274Z,18.30
2022-08-20T14:29:36.643Z,13.50
2022-08-20T14:34:42.305Z,13.00
2022-08-20T14:39:48.410Z,13.80
2022-08-20T14:44:53.973Z,14.10
2022-08-20T14:50:02.367Z,14.10
2022-08-20T14:55:12.220Z,11.70
2022-08-20T15:00:19.000Z,13.30
2022-08-20T15:05:24.675Z,13.00
2022-08-20T15:10:31.664Z,13.50
2022-08-20T15:15:37.203Z,13.60
2022-08-20T15:20:42.720Z,15.50
2022-08-20T15:25:48.465Z,18.40
2022-08-20T15:30:54.655Z,19.70
2022-08-20T15:36:00.779Z,18.70
2022-08-20T15:41:07.784Z,19.10
2022-08-20T15:46:13.421Z,18.00
2022-08-20T15:51:33.393Z,14.30
2022-08-20T15:56:59.848Z,10.40
2022-08-20T16:02:12.449Z,8.80
2022-08-20T16:07:19.812Z,8.70
2022-08-20T16:12:30.851Z,6.90
2022-08-20T16:17:38.947Z,6.90
2022-08-20T16:22:45.833Z,6.50
2022-08-20T16:27:54.626Z,6.40
2022-08-20T16:33:04.527Z,5.10
2022-08-20T16:38:12.443Z,4.80
2022-08-20T16:43:22.725Z,4.70
2022-08-20T16:48:31.850Z,3.90
2022-08-20T16:53:37.543Z,4.60
2022-08-20T16:58:45.341Z,4.20
2022-08-20T17:03:51.364Z,4.60
2022-08-20T17:08:56.733Z,4.70
2022-08-20T17:14:10.701Z,4.50
2022-08-20T17:19:19.242Z,4.90
2022-08-20T17:24:27.978Z,5.80
2022-08-20T17:29:34.531Z,6.50
2022-08-20T17:34:48.405Z,5.90
2022-08-20T17:39:55.259Z,6.50
2022-08-20T17:45:05.416Z,8.10
2022-08-20T17:50:13.460Z,7.20
2022-08-20T17:55:19.176Z,7.90
2022-08-20T18:00:26.823Z,7.40
2022-08-20T18:05:35.119Z,8.20
2022-08-20T18:10:44.050Z,7.70
2022-08-20T18:15:51.610Z,7.80
2022-08-20T18:21:16.757Z,8.30
2022-08-20T18:26:25.612Z,8.20
2022-08-20T18:31:34.149Z,8.10
2022-08-20T18:36:40.983Z,7.80
2022-08-20T18:41:57.952Z,7.20
2022-08-20T18:47:04.332Z,8.50
2022-08-20T18:52:13.723Z,8.70
2022-08-20T18:57:21.721Z,10.00
2022-08-20T19:02:29.587Z,9.60
2022-08-20T19:07:48.227Z,10.50
2022-08-20T19:13:15.459Z,11.50
2022-08-20T19:18:25.288Z,9.40
2022-08-20T19:23:34.430Z,13.70
2022-08-20T19:28:44.919Z,13.70
2022-08-20T19:33:51.573Z,13.60
2022-08-20T19:38:58.500Z,15.90
2022-08-20T19:44:04.886Z,14.70
2022-08-20T19:49:19.259Z,15.60
2022-08-20T19:54:26.126Z,17.10
2022-08-20T19:59:31.628Z,17.20
2022-08-20T20:04:41.113Z,17.50
2022-08-20T20:10:00.551Z,19.50
2022-08-20T20:15:06.974Z,17.50
2022-08-20T20:20:20.982Z,18.30
2022-08-20T20:25:38.879Z,15.90
2022-08-20T20:30:44.952Z,20.20
2022-08-20T20:35:50.785Z,21.50
2022-08-20T20:40:57.719Z,27.20
2022-08-20T20:46:06.457Z,19.40
2022-08-20T20:51:16.515Z,17.90
2022-08-20T20:56:30.751Z,16.90
2022-08-20T21:01:48.949Z,18.50
2022-08-20T21:06:57.350Z,16.50
2022-08-20T21:12:02.785Z,18.60
2022-08-20T21:17:09.510Z,18.70
2022-08-20T21:22:15.044Z,19.00
2022-08-20T21:27:21.846Z,16.90
2022-08-20T21:32:27.245Z,16.00
2022-08-20T21:37:33.146Z,13.30
2022-08-20T21:42:39.353Z,13.10
2022-08-20T21:47:44.677Z,11.50
2022-08-20T21:52:59.554Z,12.10
2022-08-20T21:58:06.557Z,11.50
2022-08-20T22:03:13.372Z,11.60
2022-08-20T22:08:20.001Z,9.40
2022-08-20T22:13:28.448Z,11.10
2022-08-20T22:18:34.378Z,10.80
2022-08-20T22:23:40.681Z,10.80
2022-08-20T22:28:50.984Z,11.20
2022-08-20T22:33:57.458Z,8.90
2022-08-20T22:39:02.708Z,8.10
2022-08-20T22:44:08.106Z,9.60
2022-08-20T22:49:14.627Z,7.90
2022-08-20T22:54:21.471Z,9.80
2022-08-20T22:59:27.071Z,9.20
2022-08-20T23:04:34.070Z,8.90
2022-08-20T23:09:39.610Z,10.30
2022-08-20T23:14:44.941Z,11.60
2022-08-20T23:19:50.998Z,14.00
2022-08-20T23:25:00.391Z,13.60
2022-08-20T23:30:06.962Z,12.20
2022-08-20T23:35:13.040Z,12.60
2022-08-20T23:40:20.097Z,11.80
2022-08-20T23:45:34.287Z,11.90
2022-08-20T23:50:41.124Z,11.90
2022-08-20T23:55:46.436Z,17.20
